sensor_id;sensor_type;location;lat;lon;timestamp;temperature;humidity
15997;DHT22;8103;51.340;12.326;2023-02-26T00:01:42;0.30;99.90
15997;DHT22;8103;51.340;12.326;2023-02-26T00:04:09;0.30;99.90
15997;DHT22;8103;51.340;12.326;2023-02-26T00:06:38;0.30;99.90
15997;DHT22;8103;51.340;12.326;2023-02-26T00:09:18;0.30;99.90
15997;DHT22;8103;51.340;12.326;2023-02-26T00:11:45;0.30;99.90
15997;DHT22;8103;51.340;12.326;2023-02-26T00:14:14;0.30;99.90
15997;DHT22;8103;51.340;12.326;2023-02-26T00:17:04;0.30;99.90
15997;DHT22;8103;51.340;12.326;2023-02-26T00:19:40;0.30;99.90
15997;DHT22;8103;51.340;12.326;2023-02-26T00:22:07;0.40;99.90
15997;DHT22;8103;51.340;12.326;2023-02-26T00:24:34;0.40;99.90
15997;DHT22;8103;51.340;12.326;2023-02-26T00:27:01;0.40;99.90
15997;DHT22;8103;51.340;12.326;2023-02-26T00:29:28;0.50;99.90
15997;DHT22;8103;51.340;12.326;2023-02-26T00:31:55;0.50;99.90
15997;DHT22;8103;51.340;12.326;2023-02-26T00:34:23;0.50;99.90
15997;DHT22;8103;51.340;12.326;2023-02-26T00:40:06;0.50;99.90
15997;DHT22;8103;51.340;12.326;2023-02-26T00:42:40;0.50;99.90
15997;DHT22;8103;51.340;12.326;2023-02-26T00:45:08;0.50;99.90
15997;DHT22;8103;51.340;12.326;2023-02-26T00:48:12;0.50;99.90
15997;DHT22;8103;51.340;12.326;2023-02-26T00:50:58;0.50;99.90
15997;DHT22;8103;51.340;12.326;2023-02-26T00:53:46;0.50;99.90
15997;DHT22;8103;51.340;12.326;2023-02-26T00:56:19;0.50;99.90
15997;DHT22;8103;51.340;12.326;2023-02-26T00:58:46;0.50;99.90
15997;DHT22;8103;51.340;12.326;2023-02-26T01:01:13;0.50;99.90
15997;DHT22;8103;51.340;12.326;2023-02-26T01:03:40;0.40;99.90
15997;DHT22;8103;51.340;12.326;2023-02-26T01:06:12;0.40;99.90
15997;DHT22;8103;51.340;12.326;2023-02-26T01:08:57;0.40;99.90
15997;DHT22;8103;51.340;12.326;2023-02-26T01:11:39;0.40;99.90
15997;DHT22;8103;51.340;12.326;2023-02-26T01:14:06;0.40;99.90
15997;DHT22;8103;51.340;12.326;2023-02-26T01:16:40;0.40;99.90
15997;DHT22;8103;51.340;12.326;2023-02-26T01:19:42;0.40;99.90
15997;DHT22;8103;51.340;12.326;2023-02-26T01:22:18;0.40;99.90
15997;DHT22;8103;51.340;12.326;2023-02-26T01:24:55;0.40;99.90
15997;DHT22;8103;51.340;12.326;2023-02-26T01:27:29;0.40;99.90
15997;DHT22;8103;51.340;12.326;2023-02-26T01:29:56;0.30;99.90
15997;DHT22;8103;51.340;12.326;2023-02-26T01:35:16;0.30;99.90
15997;DHT22;8103;51.340;12.326;2023-02-26T01:44:03;0.30;99.90
15997;DHT22;8103;51.340;12.326;2023-02-26T01:49:36;0.30;99.90
15997;DHT22;8103;51.340;12.326;2023-02-26T01:52:05;0.20;99.90
15997;DHT22;8103;51.340;12.326;2023-02-26T01:54:52;0.20;99.90
15997;DHT22;8103;51.340;12.326;2023-02-26T01:57:20;0.20;99.90
15997;DHT22;8103;51.340;12.326;2023-02-26T01:59:50;0.20;99.90
15997;DHT22;8103;51.340;12.326;2023-02-26T02:02:20;0.20;99.90
15997;DHT22;8103;51.340;12.326;2023-02-26T02:04:49;0.20;99.90
15997;DHT22;8103;51.340;12.326;2023-02-26T02:07:17;0.20;99.90
15997;DHT22;8103;51.340;12.326;2023-02-26T02:09:45;0.20;99.90
15997;DHT22;8103;51.340;12.326;2023-02-26T02:12:37;0.20;99.90
15997;DHT22;8103;51.340;12.326;2023-02-26T02:15:18;0.20;99.90
15997;DHT22;8103;51.340;12.326;2023-02-26T02:24:13;0.20;99.90
15997;DHT22;8103;51.340;12.326;2023-02-26T02:26:55;0.20;99.90
15997;DHT22;8103;51.340;12.326;2023-02-26T02:35:29;0.20;99.90
15997;DHT22;8103;51.340;12.326;2023-02-26T02:38:15;0.20;99.90
15997;DHT22;8103;51.340;12.326;2023-02-26T02:40:51;0.20;99.90
15997;DHT22;8103;51.340;12.326;2023-02-26T02:43:26;0.20;99.90
15997;DHT22;8103;51.340;12.326;2023-02-26T02:46:05;0.20;99.90
15997;DHT22;8103;51.340;12.326;2023-02-26T02:48:43;0.10;99.90
15997;DHT22;8103;51.340;12.326;2023-02-26T02:51:20;0.20;99.90
15997;DHT22;8103;51.340;12.326;2023-02-26T02:53:55;0.10;99.90
15997;DHT22;8103;51.340;12.326;2023-02-26T02:56:32;0.10;99.90
15997;DHT22;8103;51.340;12.326;2023-02-26T02:59:30;0.20;99.90
15997;DHT22;8103;51.340;12.326;2023-02-26T03:02:15;0.10;99.90
15997;DHT22;8103;51.340;12.326;2023-02-26T03:04:47;0.10;99.90
15997;DHT22;8103;51.340;12.326;2023-02-26T03:07:14;0.10;99.90
15997;DHT22;8103;51.340;12.326;2023-02-26T03:09:41;0.10;99.90
15997;DHT22;8103;51.340;12.326;2023-02-26T03:12:08;0.10;99.90
15997;DHT22;8103;51.340;12.326;2023-02-26T03:14:36;0.00;99.90
15997;DHT22;8103;51.340;12.326;2023-02-26T03:17:26;0.00;99.90
15997;DHT22;8103;51.340;12.326;2023-02-26T03:20:20;0.00;99.90
15997;DHT22;8103;51.340;12.326;2023-02-26T03:23:18;0.00;99.90
15997;DHT22;8103;51.340;12.326;2023-02-26T03:25:59;0.00;99.90
15997;DHT22;8103;51.340;12.326;2023-02-26T03:28:46;0.00;99.90
15997;DHT22;8103;51.340;12.326;2023-02-26T03:31:30;0.00;99.90
15997;DHT22;8103;51.340;12.326;2023-02-26T03:34:20;0.00;99.90
15997;DHT22;8103;51.340;12.326;2023-02-26T03:36:58;0.10;99.90
15997;DHT22;8103;51.340;12.326;2023-02-26T03:39:42;0.10;99.90
15997;DHT22;8103;51.340;12.326;2023-02-26T03:42:42;0.00;99.90
15997;DHT22;8103;51.340;12.326;2023-02-26T03:45:19;0.00;99.90
15997;DHT22;8103;51.340;12.326;2023-02-26T03:47:51;0.00;99.90
15997;DHT22;8103;51.340;12.326;2023-02-26T03:50:41;0.00;99.90
15997;DHT22;8103;51.340;12.326;2023-02-26T03:53:30;-0.10;99.90
15997;DHT22;8103;51.340;12.326;2023-02-26T03:56:15;-0.10;99.90
15997;DHT22;8103;51.340;12.326;2023-02-26T03:58:47;-0.10;99.90
15997;DHT22;8103;51.340;12.326;2023-02-26T04:01:19;-0.10;99.90
15997;DHT22;8103;51.340;12.326;2023-02-26T04:03:52;-0.10;99.90
15997;DHT22;8103;51.340;12.326;2023-02-26T04:06:25;-0.10;99.90
15997;DHT22;8103;51.340;12.326;2023-02-26T04:08:52;-0.10;99.90
15997;DHT22;8103;51.340;12.326;2023-02-26T04:11:20;-0.10;99.90
15997;DHT22;8103;51.340;12.326;2023-02-26T04:13:48;-0.10;99.90
15997;DHT22;8103;51.340;12.326;2023-02-26T04:16:16;-0.10;99.90
15997;DHT22;8103;51.340;12.326;2023-02-26T04:18:44;-0.10;99.90
15997;DHT22;8103;51.340;12.326;2023-02-26T04:21:15;0.00;99.90
15997;DHT22;8103;51.340;12.326;2023-02-26T04:23:45;0.00;99.90
15997;DHT22;8103;51.340;12.326;2023-02-26T04:26:12;0.00;99.90
15997;DHT22;8103;51.340;12.326;2023-02-26T04:28:40;0.00;99.90
15997;DHT22;8103;51.340;12.326;2023-02-26T04:31:07;0.00;99.90
15997;DHT22;8103;51.340;12.326;2023-02-26T04:33:35;0.10;99.90
15997;DHT22;8103;51.340;12.326;2023-02-26T04:36:03;0.10;99.90
15997;DHT22;8103;51.340;12.326;2023-02-26T04:38:30;0.00;99.90
15997;DHT22;8103;51.340;12.326;2023-02-26T04:40:57;0.00;99.90
15997;DHT22;8103;51.340;12.326;2023-02-26T04:43:24;0.00;99.90
15997;DHT22;8103;51.340;12.326;2023-02-26T04:45:51;0.00;99.90
15997;DHT22;8103;51.340;12.326;2023-02-26T04:48:17;0.00;99.90
15997;DHT22;8103;51.340;12.326;2023-02-26T04:50:45;0.00;99.90
15997;DHT22;8103;51.340;12.326;2023-02-26T04:53:11;0.00;99.90
15997;DHT22;8103;51.340;12.326;2023-02-26T04:55:39;0.00;99.90
15997;DHT22;8103;51.340;12.326;2023-02-26T04:58:07;0.00;99.90
15997;DHT22;8103;51.340;12.326;2023-02-26T05:00:34;0.00;99.90
15997;DHT22;8103;51.340;12.326;2023-02-26T05:03:01;0.00;99.90
15997;DHT22;8103;51.340;12.326;2023-02-26T05:05:28;0.00;99.90
15997;DHT22;8103;51.340;12.326;2023-02-26T05:07:55;0.00;99.90
15997;DHT22;8103;51.340;12.326;2023-02-26T05:10:23;0.00;99.90
15997;DHT22;8103;51.340;12.326;2023-02-26T05:12:50;0.00;99.90
15997;DHT22;8103;51.340;12.326;2023-02-26T05:15:17;-0.10;99.90
15997;DHT22;8103;51.340;12.326;2023-02-26T05:17:44;-0.10;99.90
15997;DHT22;8103;51.340;12.326;2023-02-26T05:20:11;-0.10;99.90
15997;DHT22;8103;51.340;12.326;2023-02-26T05:22:38;-0.10;99.90
15997;DHT22;8103;51.340;12.326;2023-02-26T05:25:06;-0.10;99.90
15997;DHT22;8103;51.340;12.326;2023-02-26T05:27:33;-0.20;99.90
15997;DHT22;8103;51.340;12.326;2023-02-26T05:30:00;-0.10;99.90
15997;DHT22;8103;51.340;12.326;2023-02-26T05:32:27;-0.20;99.90
15997;DHT22;8103;51.340;12.326;2023-02-26T05:34:54;-0.10;99.90
15997;DHT22;8103;51.340;12.326;2023-02-26T05:37:21;-0.20;99.90
15997;DHT22;8103;51.340;12.326;2023-02-26T05:39:47;-0.20;99.90
15997;DHT22;8103;51.340;12.326;2023-02-26T05:42:14;-0.20;99.90
15997;DHT22;8103;51.340;12.326;2023-02-26T05:44:41;-0.20;99.90
15997;DHT22;8103;51.340;12.326;2023-02-26T05:47:08;-0.20;99.90
15997;DHT22;8103;51.340;12.326;2023-02-26T05:49:35;-0.20;99.90
15997;DHT22;8103;51.340;12.326;2023-02-26T05:52:02;-0.20;99.90
15997;DHT22;8103;51.340;12.326;2023-02-26T05:54:29;-0.10;99.90
15997;DHT22;8103;51.340;12.326;2023-02-26T05:56:56;-0.10;99.90
15997;DHT22;8103;51.340;12.326;2023-02-26T05:59:23;-0.10;99.90
15997;DHT22;8103;51.340;12.326;2023-02-26T06:01:50;-0.10;99.90
15997;DHT22;8103;51.340;12.326;2023-02-26T06:04:17;-0.10;99.90
15997;DHT22;8103;51.340;12.326;2023-02-26T06:06:43;-0.10;99.90
15997;DHT22;8103;51.340;12.326;2023-02-26T06:09:10;-0.10;99.90
15997;DHT22;8103;51.340;12.326;2023-02-26T06:11:37;-0.10;99.90
15997;DHT22;8103;51.340;12.326;2023-02-26T06:14:05;0.00;99.90
15997;DHT22;8103;51.340;12.326;2023-02-26T06:16:32;0.00;99.90
15997;DHT22;8103;51.340;12.326;2023-02-26T06:19:01;0.00;99.90
15997;DHT22;8103;51.340;12.326;2023-02-26T06:21:29;0.00;99.90
15997;DHT22;8103;51.340;12.326;2023-02-26T06:23:56;0.10;99.90
15997;DHT22;8103;51.340;12.326;2023-02-26T06:26:23;0.10;99.90
15997;DHT22;8103;51.340;12.326;2023-02-26T06:28:50;0.10;99.90
15997;DHT22;8103;51.340;12.326;2023-02-26T06:31:17;0.20;99.90
15997;DHT22;8103;51.340;12.326;2023-02-26T06:33:44;0.20;99.90
15997;DHT22;8103;51.340;12.326;2023-02-26T06:36:11;0.20;99.90
15997;DHT22;8103;51.340;12.326;2023-02-26T06:38:38;0.30;99.90
15997;DHT22;8103;51.340;12.326;2023-02-26T06:41:05;0.30;99.90
15997;DHT22;8103;51.340;12.326;2023-02-26T06:43:32;0.30;99.90
15997;DHT22;8103;51.340;12.326;2023-02-26T06:45:59;0.40;99.90
15997;DHT22;8103;51.340;12.326;2023-02-26T06:48:26;0.40;99.90
15997;DHT22;8103;51.340;12.326;2023-02-26T06:50:53;0.40;99.90
15997;DHT22;8103;51.340;12.326;2023-02-26T06:53:20;0.50;99.90
15997;DHT22;8103;51.340;12.326;2023-02-26T06:55:50;0.50;99.90
15997;DHT22;8103;51.340;12.326;2023-02-26T06:58:19;0.50;99.90
15997;DHT22;8103;51.340;12.326;2023-02-26T07:00:46;0.50;99.90
15997;DHT22;8103;51.340;12.326;2023-02-26T07:03:14;0.60;99.90
15997;DHT22;8103;51.340;12.326;2023-02-26T07:05:44;0.60;99.90
15997;DHT22;8103;51.340;12.326;2023-02-26T07:08:12;0.60;99.90
15997;DHT22;8103;51.340;12.326;2023-02-26T07:10:40;0.60;99.90
15997;DHT22;8103;51.340;12.326;2023-02-26T07:13:08;0.60;99.90
15997;DHT22;8103;51.340;12.326;2023-02-26T07:15:35;0.70;99.90
15997;DHT22;8103;51.340;12.326;2023-02-26T07:18:02;0.70;99.90
15997;DHT22;8103;51.340;12.326;2023-02-26T07:20:29;0.70;99.90
15997;DHT22;8103;51.340;12.326;2023-02-26T07:22:56;0.70;99.90
15997;DHT22;8103;51.340;12.326;2023-02-26T07:25:23;0.70;99.90
15997;DHT22;8103;51.340;12.326;2023-02-26T07:27:51;0.70;99.90
15997;DHT22;8103;51.340;12.326;2023-02-26T07:30:18;0.80;99.90
15997;DHT22;8103;51.340;12.326;2023-02-26T07:32:45;0.80;99.90
15997;DHT22;8103;51.340;12.326;2023-02-26T07:35:12;0.90;99.90
15997;DHT22;8103;51.340;12.326;2023-02-26T07:37:38;0.90;99.90
15997;DHT22;8103;51.340;12.326;2023-02-26T07:40:06;1.00;99.90
15997;DHT22;8103;51.340;12.326;2023-02-26T07:42:33;1.00;99.90
15997;DHT22;8103;51.340;12.326;2023-02-26T07:45:00;1.00;99.90
15997;DHT22;8103;51.340;12.326;2023-02-26T07:47:27;1.00;99.90
15997;DHT22;8103;51.340;12.326;2023-02-26T07:49:56;1.00;99.90
15997;DHT22;8103;51.340;12.326;2023-02-26T07:52:23;1.00;99.90
15997;DHT22;8103;51.340;12.326;2023-02-26T07:54:50;1.10;99.90
15997;DHT22;8103;51.340;12.326;2023-02-26T07:57:17;1.10;99.90
15997;DHT22;8103;51.340;12.326;2023-02-26T07:59:45;1.10;99.90
15997;DHT22;8103;51.340;12.326;2023-02-26T08:02:12;1.10;99.90
15997;DHT22;8103;51.340;12.326;2023-02-26T08:04:39;1.10;99.90
15997;DHT22;8103;51.340;12.326;2023-02-26T08:07:06;1.20;99.90
15997;DHT22;8103;51.340;12.326;2023-02-26T08:09:32;1.30;99.90
15997;DHT22;8103;51.340;12.326;2023-02-26T08:11:59;1.30;99.90
15997;DHT22;8103;51.340;12.326;2023-02-26T08:14:26;1.40;99.90
15997;DHT22;8103;51.340;12.326;2023-02-26T08:16:53;1.40;99.90
15997;DHT22;8103;51.340;12.326;2023-02-26T08:19:20;1.50;99.90
15997;DHT22;8103;51.340;12.326;2023-02-26T08:21:47;1.60;99.90
15997;DHT22;8103;51.340;12.326;2023-02-26T08:24:16;1.70;99.90
15997;DHT22;8103;51.340;12.326;2023-02-26T08:26:42;1.80;99.90
15997;DHT22;8103;51.340;12.326;2023-02-26T08:29:11;1.80;99.90
15997;DHT22;8103;51.340;12.326;2023-02-26T08:31:38;1.90;99.90
15997;DHT22;8103;51.340;12.326;2023-02-26T08:34:05;1.90;99.90
15997;DHT22;8103;51.340;12.326;2023-02-26T08:36:32;1.90;99.90
15997;DHT22;8103;51.340;12.326;2023-02-26T08:38:59;1.90;99.90
15997;DHT22;8103;51.340;12.326;2023-02-26T08:41:26;2.00;99.90
15997;DHT22;8103;51.340;12.326;2023-02-26T08:43:58;2.00;99.90
15997;DHT22;8103;51.340;12.326;2023-02-26T08:46:26;2.10;99.90
15997;DHT22;8103;51.340;12.326;2023-02-26T08:48:54;2.10;99.90
15997;DHT22;8103;51.340;12.326;2023-02-26T08:51:21;2.10;99.90
15997;DHT22;8103;51.340;12.326;2023-02-26T08:53:48;2.20;99.90
15997;DHT22;8103;51.340;12.326;2023-02-26T08:56:16;2.20;99.90
15997;DHT22;8103;51.340;12.326;2023-02-26T08:58:44;2.20;99.90
15997;DHT22;8103;51.340;12.326;2023-02-26T09:01:10;2.30;99.90
15997;DHT22;8103;51.340;12.326;2023-02-26T09:03:37;2.30;99.90
15997;DHT22;8103;51.340;12.326;2023-02-26T09:06:05;2.30;99.90
15997;DHT22;8103;51.340;12.326;2023-02-26T09:08:32;2.30;99.90
15997;DHT22;8103;51.340;12.326;2023-02-26T09:11:02;2.30;99.90
15997;DHT22;8103;51.340;12.326;2023-02-26T09:13:29;2.20;99.90
15997;DHT22;8103;51.340;12.326;2023-02-26T09:15:56;2.20;99.90
15997;DHT22;8103;51.340;12.326;2023-02-26T09:18:23;2.20;99.90
15997;DHT22;8103;51.340;12.326;2023-02-26T09:20:50;2.20;99.90
15997;DHT22;8103;51.340;12.326;2023-02-26T09:23:18;2.30;99.90
15997;DHT22;8103;51.340;12.326;2023-02-26T09:25:45;2.50;99.90
15997;DHT22;8103;51.340;12.326;2023-02-26T09:28:11;2.60;99.90
15997;DHT22;8103;51.340;12.326;2023-02-26T09:30:38;2.70;99.90
15997;DHT22;8103;51.340;12.326;2023-02-26T09:33:05;2.90;99.90
15997;DHT22;8103;51.340;12.326;2023-02-26T09:35:32;3.00;99.90
15997;DHT22;8103;51.340;12.326;2023-02-26T09:37:59;3.10;99.90
15997;DHT22;8103;51.340;12.326;2023-02-26T09:40:52;3.20;99.90
15997;DHT22;8103;51.340;12.326;2023-02-26T09:55:14;3.70;99.90
15997;DHT22;8103;51.340;12.326;2023-02-26T09:57:53;3.80;99.90
15997;DHT22;8103;51.340;12.326;2023-02-26T10:01:20;3.90;99.90
15997;DHT22;8103;51.340;12.326;2023-02-26T10:07:30;4.20;99.90
15997;DHT22;8103;51.340;12.326;2023-02-26T10:10:17;4.40;99.30
15997;DHT22;8103;51.340;12.326;2023-02-26T10:13:03;4.60;99.00
15997;DHT22;8103;51.340;12.326;2023-02-26T10:15:39;4.90;98.50
15997;DHT22;8103;51.340;12.326;2023-02-26T10:21:07;5.30;95.60
15997;DHT22;8103;51.340;12.326;2023-02-26T10:23:54;5.50;95.80
15997;DHT22;8103;51.340;12.326;2023-02-26T10:26:27;5.90;95.10
15997;DHT22;8103;51.340;12.326;2023-02-26T10:29:04;6.10;93.20
15997;DHT22;8103;51.340;12.326;2023-02-26T10:35:10;6.40;91.20
15997;DHT22;8103;51.340;12.326;2023-02-26T10:38:22;6.50;91.00
15997;DHT22;8103;51.340;12.326;2023-02-26T10:41:01;6.60;90.00
15997;DHT22;8103;51.340;12.326;2023-02-26T10:51:47;8.00;84.80
15997;DHT22;8103;51.340;12.326;2023-02-26T10:54:23;9.90;82.40
15997;DHT22;8103;51.340;12.326;2023-02-26T10:56:55;12.40;68.60
15997;DHT22;8103;51.340;12.326;2023-02-26T11:03:42;15.20;59.80
15997;DHT22;8103;51.340;12.326;2023-02-26T11:06:22;14.80;54.90
15997;DHT22;8103;51.340;12.326;2023-02-26T11:08:55;15.00;50.00
15997;DHT22;8103;51.340;12.326;2023-02-26T11:12:11;15.40;48.60
15997;DHT22;8103;51.340;12.326;2023-02-26T11:14:41;15.60;48.60
15997;DHT22;8103;51.340;12.326;2023-02-26T11:17:28;14.80;47.70
15997;DHT22;8103;51.340;12.326;2023-02-26T11:20:01;13.80;49.10
15997;DHT22;8103;51.340;12.326;2023-02-26T11:22:33;13.60;51.00
15997;DHT22;8103;51.340;12.326;2023-02-26T11:25:05;13.70;50.10
15997;DHT22;8103;51.340;12.326;2023-02-26T11:27:37;13.40;50.20
15997;DHT22;8103;51.340;12.326;2023-02-26T11:30:26;13.00;51.40
15997;DHT22;8103;51.340;12.326;2023-02-26T11:32:58;12.40;51.70
15997;DHT22;8103;51.340;12.326;2023-02-26T11:35:32;12.20;52.90
15997;DHT22;8103;51.340;12.326;2023-02-26T11:38:00;12.00;53.30
15997;DHT22;8103;51.340;12.326;2023-02-26T11:40:36;11.30;53.60
15997;DHT22;8103;51.340;12.326;2023-02-26T11:43:11;10.20;55.40
15997;DHT22;8103;51.340;12.326;2023-02-26T11:45:45;9.30;57.30
15997;DHT22;8103;51.340;12.326;2023-02-26T11:48:23;8.50;59.50
15997;DHT22;8103;51.340;12.326;2023-02-26T11:50:58;7.80;61.70
15997;DHT22;8103;51.340;12.326;2023-02-26T11:53:35;7.40;63.80
15997;DHT22;8103;51.340;12.326;2023-02-26T11:58:43;6.60;66.80
15997;DHT22;8103;51.340;12.326;2023-02-26T12:01:13;6.50;69.20
15997;DHT22;8103;51.340;12.326;2023-02-26T12:03:45;7.90;74.00
15997;DHT22;8103;51.340;12.326;2023-02-26T12:06:18;11.10;66.50
15997;DHT22;8103;51.340;12.326;2023-02-26T12:08:48;12.30;57.70
15997;DHT22;8103;51.340;12.326;2023-02-26T12:19:00;13.30;51.30
15997;DHT22;8103;51.340;12.326;2023-02-26T12:21:53;14.70;50.50
15997;DHT22;8103;51.340;12.326;2023-02-26T12:27:51;17.80;43.00
15997;DHT22;8103;51.340;12.326;2023-02-26T12:37:04;13.90;46.40
15997;DHT22;8103;51.340;12.326;2023-02-26T12:40:04;11.60;51.60
15997;DHT22;8103;51.340;12.326;2023-02-26T12:46:07;8.60;58.20
15997;DHT22;8103;51.340;12.326;2023-02-26T12:53:06;7.30;62.70
15997;DHT22;8103;51.340;12.326;2023-02-26T12:55:38;6.90;63.40
15997;DHT22;8103;51.340;12.326;2023-02-26T12:59:14;7.10;65.50
15997;DHT22;8103;51.340;12.326;2023-02-26T13:01:48;8.50;62.80
15997;DHT22;8103;51.340;12.326;2023-02-26T13:05:18;9.50;58.30
15997;DHT22;8103;51.340;12.326;2023-02-26T13:08:11;9.00;58.40
15997;DHT22;8103;51.340;12.326;2023-02-26T13:10:56;7.90;65.40
15997;DHT22;8103;51.340;12.326;2023-02-26T13:13:52;7.30;68.50
15997;DHT22;8103;51.340;12.326;2023-02-26T13:19:33;6.60;70.80
15997;DHT22;8103;51.340;12.326;2023-02-26T13:27:33;7.20;69.30
15997;DHT22;8103;51.340;12.326;2023-02-26T13:30:42;7.70;68.40
15997;DHT22;8103;51.340;12.326;2023-02-26T13:33:21;9.00;67.10
15997;DHT22;8103;51.340;12.326;2023-02-26T13:35:53;12.60;58.00
15997;DHT22;8103;51.340;12.326;2023-02-26T13:38:45;16.10;48.40
15997;DHT22;8103;51.340;12.326;2023-02-26T13:41:49;19.20;41.20
15997;DHT22;8103;51.340;12.326;2023-02-26T13:44:48;21.30;36.10
15997;DHT22;8103;51.340;12.326;2023-02-26T13:51:13;22.20;32.00
15997;DHT22;8103;51.340;12.326;2023-02-26T13:53:58;21.80;30.20
15997;DHT22;8103;51.340;12.326;2023-02-26T14:01:59;22.10;30.50
15997;DHT22;8103;51.340;12.326;2023-02-26T14:04:52;23.30;29.50
15997;DHT22;8103;51.340;12.326;2023-02-26T14:07:46;24.80;27.80
15997;DHT22;8103;51.340;12.326;2023-02-26T14:10:43;25.50;26.90
15997;DHT22;8103;51.340;12.326;2023-02-26T14:13:23;24.80;26.50
15997;DHT22;8103;51.340;12.326;2023-02-26T14:16:10;22.50;27.90
15997;DHT22;8103;51.340;12.326;2023-02-26T14:24:32;14.70;35.20
15997;DHT22;8103;51.340;12.326;2023-02-26T14:29:43;15.70;35.80
15997;DHT22;8103;51.340;12.326;2023-02-26T14:32:33;16.60;35.50
15997;DHT22;8103;51.340;12.326;2023-02-26T14:35:15;16.80;34.50
15997;DHT22;8103;51.340;12.326;2023-02-26T14:37:58;15.80;34.60
15997;DHT22;8103;51.340;12.326;2023-02-26T14:40:38;14.30;36.10
15997;DHT22;8103;51.340;12.326;2023-02-26T14:43:20;13.20;38.50
15997;DHT22;8103;51.340;12.326;2023-02-26T14:45:57;12.10;40.50
15997;DHT22;8103;51.340;12.326;2023-02-26T14:48:26;11.10;42.20
15997;DHT22;8103;51.340;12.326;2023-02-26T14:56:49;9.20;47.10
15997;DHT22;8103;51.340;12.326;2023-02-26T14:59:52;8.60;48.50
15997;DHT22;8103;51.340;12.326;2023-02-26T15:02:41;8.10;50.30
15997;DHT22;8103;51.340;12.326;2023-02-26T15:05:19;7.70;51.40
15997;DHT22;8103;51.340;12.326;2023-02-26T15:08:24;7.30;53.60
15997;DHT22;8103;51.340;12.326;2023-02-26T15:19:35;6.50;59.50
15997;DHT22;8103;51.340;12.326;2023-02-26T15:23:07;6.20;65.00
15997;DHT22;8103;51.340;12.326;2023-02-26T15:25:55;5.80;69.70
15997;DHT22;8103;51.340;12.326;2023-02-26T15:28:29;5.50;72.80
15997;DHT22;8103;51.340;12.326;2023-02-26T15:31:06;5.30;73.10
15997;DHT22;8103;51.340;12.326;2023-02-26T15:33:39;5.20;74.00
15997;DHT22;8103;51.340;12.326;2023-02-26T15:36:16;5.20;74.40
15997;DHT22;8103;51.340;12.326;2023-02-26T15:38:58;5.20;74.10
15997;DHT22;8103;51.340;12.326;2023-02-26T15:41:29;5.20;74.30
15997;DHT22;8103;51.340;12.326;2023-02-26T15:44:06;5.20;74.70
15997;DHT22;8103;51.340;12.326;2023-02-26T15:46:42;5.20;74.80
15997;DHT22;8103;51.340;12.326;2023-02-26T15:49:27;5.20;74.70
15997;DHT22;8103;51.340;12.326;2023-02-26T15:51:56;5.30;75.00
15997;DHT22;8103;51.340;12.326;2023-02-26T15:54:38;5.30;75.70
15997;DHT22;8103;51.340;12.326;2023-02-26T15:57:12;5.20;74.60
15997;DHT22;8103;51.340;12.326;2023-02-26T15:59:52;5.20;74.60
15997;DHT22;8103;51.340;12.326;2023-02-26T16:02:29;5.20;74.90
15997;DHT22;8103;51.340;12.326;2023-02-26T16:04:57;5.20;75.20
15997;DHT22;8103;51.340;12.326;2023-02-26T16:07:24;5.10;75.10
15997;DHT22;8103;51.340;12.326;2023-02-26T16:09:53;5.00;75.20
15997;DHT22;8103;51.340;12.326;2023-02-26T16:12:33;5.00;75.60
15997;DHT22;8103;51.340;12.326;2023-02-26T16:15:10;4.80;75.50
15997;DHT22;8103;51.340;12.326;2023-02-26T16:17:42;4.80;76.20
15997;DHT22;8103;51.340;12.326;2023-02-26T16:20:17;4.60;76.40
15997;DHT22;8103;51.340;12.326;2023-02-26T16:22:49;4.40;76.60
15997;DHT22;8103;51.340;12.326;2023-02-26T16:25:36;4.20;77.00
15997;DHT22;8103;51.340;12.326;2023-02-26T16:28:18;4.00;77.30
15997;DHT22;8103;51.340;12.326;2023-02-26T16:30:51;3.90;77.70
15997;DHT22;8103;51.340;12.326;2023-02-26T16:33:25;3.80;78.00
15997;DHT22;8103;51.340;12.326;2023-02-26T16:36:05;3.60;78.40
15997;DHT22;8103;51.340;12.326;2023-02-26T16:38:48;3.50;79.10
15997;DHT22;8103;51.340;12.326;2023-02-26T16:41:22;3.40;79.50
15997;DHT22;8103;51.340;12.326;2023-02-26T16:43:58;3.30;80.00
15997;DHT22;8103;51.340;12.326;2023-02-26T16:46:36;3.20;80.20
15997;DHT22;8103;51.340;12.326;2023-02-26T16:49:25;3.10;81.00
15997;DHT22;8103;51.340;12.326;2023-02-26T16:51:56;3.00;82.20
15997;DHT22;8103;51.340;12.326;2023-02-26T16:54:34;2.90;81.70
15997;DHT22;8103;51.340;12.326;2023-02-26T16:57:18;2.80;82.40
15997;DHT22;8103;51.340;12.326;2023-02-26T16:59:53;2.70;83.10
15997;DHT22;8103;51.340;12.326;2023-02-26T17:02:26;2.70;83.70
15997;DHT22;8103;51.340;12.326;2023-02-26T17:05:02;2.60;84.40
15997;DHT22;8103;51.340;12.326;2023-02-26T17:07:52;2.50;84.60
15997;DHT22;8103;51.340;12.326;2023-02-26T17:10:49;2.50;85.60
15997;DHT22;8103;51.340;12.326;2023-02-26T17:13:28;2.40;85.90
15997;DHT22;8103;51.340;12.326;2023-02-26T17:16:05;2.30;86.20
15997;DHT22;8103;51.340;12.326;2023-02-26T17:18:35;2.30;86.70
15997;DHT22;8103;51.340;12.326;2023-02-26T17:21:03;2.20;87.30
15997;DHT22;8103;51.340;12.326;2023-02-26T17:23:36;2.20;87.70
15997;DHT22;8103;51.340;12.326;2023-02-26T17:26:04;2.20;88.20
15997;DHT22;8103;51.340;12.326;2023-02-26T17:28:35;2.10;88.50
15997;DHT22;8103;51.340;12.326;2023-02-26T17:31:06;2.00;88.60
15997;DHT22;8103;51.340;12.326;2023-02-26T17:33:35;2.00;89.00
15997;DHT22;8103;51.340;12.326;2023-02-26T17:36:05;2.00;89.20
15997;DHT22;8103;51.340;12.326;2023-02-26T17:38:33;2.00;89.60
15997;DHT22;8103;51.340;12.326;2023-02-26T17:41:00;1.90;89.50
15997;DHT22;8103;51.340;12.326;2023-02-26T17:43:29;1.90;89.90
15997;DHT22;8103;51.340;12.326;2023-02-26T17:45:56;1.90;90.00
15997;DHT22;8103;51.340;12.326;2023-02-26T17:48:27;1.80;90.10
15997;DHT22;8103;51.340;12.326;2023-02-26T17:50:56;1.80;90.30
15997;DHT22;8103;51.340;12.326;2023-02-26T17:53:25;1.70;90.50
15997;DHT22;8103;51.340;12.326;2023-02-26T17:55:58;1.70;90.80
15997;DHT22;8103;51.340;12.326;2023-02-26T17:58:32;1.70;90.90
15997;DHT22;8103;51.340;12.326;2023-02-26T18:01:00;1.60;90.90
15997;DHT22;8103;51.340;12.326;2023-02-26T18:03:29;1.70;91.10
15997;DHT22;8103;51.340;12.326;2023-02-26T18:05:57;1.60;91.10
15997;DHT22;8103;51.340;12.326;2023-02-26T18:08:32;1.50;91.10
15997;DHT22;8103;51.340;12.326;2023-02-26T18:11:01;1.50;91.10
15997;DHT22;8103;51.340;12.326;2023-02-26T18:13:29;1.50;91.10
15997;DHT22;8103;51.340;12.326;2023-02-26T18:15:56;1.50;91.10
15997;DHT22;8103;51.340;12.326;2023-02-26T18:18:25;1.50;91.20
15997;DHT22;8103;51.340;12.326;2023-02-26T18:20:52;1.40;91.20
15997;DHT22;8103;51.340;12.326;2023-02-26T18:23:20;1.40;91.30
15997;DHT22;8103;51.340;12.326;2023-02-26T18:25:49;1.40;91.40
15997;DHT22;8103;51.340;12.326;2023-02-26T18:28:22;1.30;91.70
15997;DHT22;8103;51.340;12.326;2023-02-26T18:30:52;1.30;91.60
15997;DHT22;8103;51.340;12.326;2023-02-26T18:33:21;1.30;91.80
15997;DHT22;8103;51.340;12.326;2023-02-26T18:35:52;1.30;91.80
15997;DHT22;8103;51.340;12.326;2023-02-26T18:38:25;1.20;91.90